Time;durP1;ratioP1;P1;durP2;ratioP2;P2;SDS_P1;SDS_P2;PMS_P1;PMS_P2;Temp;Humidity;BMP_temperature;BMP_pressure;BME280_temperature;BME280_humidity;BME280_pressure;Samples;Min_cycle;Max_cycle;Signal;HPM_P1;HPM_P2
2022/08/21 00:00:27;;;;;;;3.75;2.70;;;;;;;18.92;52.09;101640.53;4960153;28;118793;-61
2022/08/21 00:02:58;;;;;;;5.75;3.00;;;;;;;18.86;52.18;101637.31;4964815;28;124088;-61
2022/08/21 00:05:26;;;;;;;5.43;3.05;;;;;;;18.83;52.04;101637.50;4965946;28;124286;-61
2022/08/21 00:07:54;;;;;;;5.13;3.08;;;;;;;18.79;52.10;101646.69;4958004;28;120126;-59
2022/08/21 00:10:22;;;;;;;6.40;3.05;;;;;;;18.75;52.20;101634.44;4955544;28;119090;-60
2022/08/21 00:12:50;;;;;;;5.05;2.88;;;;;;;18.72;52.15;101642.69;4956473;28;124092;-60
2022/08/21 00:15:22;;;;;;;5.47;3.20;;;;;;;18.69;52.44;101645.59;4965548;28;123704;-60
2022/08/21 00:17:49;;;;;;;7.55;3.33;;;;;;;18.65;52.30;101644.09;4951790;28;119433;-60
2022/08/21 00:20:17;;;;;;;5.22;2.97;;;;;;;18.61;52.36;101637.19;4960945;28;119647;-60
2022/08/21 00:22:45;;;;;;;5.20;3.17;;;;;;;18.58;52.17;101632.03;4957290;28;124844;-60
2022/08/21 00:25:14;;;;;;;4.72;3.33;;;;;;;18.55;52.35;101632.22;4953932;28;124341;-59
2022/08/21 00:27:43;;;;;;;5.13;3.10;;;;;;;18.54;52.46;101630.53;4962111;28;119427;-60
2022/08/21 00:30:11;;;;;;;5.45;3.20;;;;;;;18.51;52.33;101636.09;4959823;28;120616;-60
2022/08/21 00:32:50;;;;;;;4.93;3.00;;;;;;;18.47;52.27;101625.53;4947088;28;123576;-60
2022/08/21 00:35:21;;;;;;;6.55;3.60;;;;;;;18.45;52.73;101630.16;4960546;28;124216;-60
2022/08/21 00:37:49;;;;;;;5.05;3.03;;;;;;;18.41;52.62;101625.94;4952697;28;119816;-62
2022/08/21 00:40:20;;;;;;;6.18;3.47;;;;;;;18.37;52.72;101619.06;4955014;28;119705;-60
2022/08/21 00:42:48;;;;;;;5.55;3.22;;;;;;;18.35;52.87;101621.00;4974344;28;123527;-60
2022/08/21 00:45:21;;;;;;;4.57;3.13;;;;;;;18.31;52.76;101622.16;4957544;28;123779;-60
2022/08/21 00:47:49;;;;;;;6.20;3.40;;;;;;;18.29;52.85;101622.25;4962461;28;119189;-60
2022/08/21 00:50:17;;;;;;;7.25;3.10;;;;;;;18.26;52.76;101613.56;4962547;28;119370;-59
2022/08/21 00:52:50;;;;;;;4.30;3.20;;;;;;;18.24;52.66;101620.84;4962890;28;123834;-60
2022/08/21 00:55:20;;;;;;;4.82;3.10;;;;;;;18.21;52.92;101612.97;4944903;28;123836;-60
2022/08/21 00:57:55;;;;;;;6.38;3.08;;;;;;;18.18;52.72;101618.56;4975410;28;118188;-60
2022/08/21 01:00:28;;;;;;;5.57;3.40;;;;;;;18.17;52.87;101616.81;4951783;28;119277;-59
2022/08/21 01:02:57;;;;;;;5.28;2.95;;;;;;;18.12;52.91;101618.94;4960960;28;124474;-60
2022/08/21 01:05:25;;;;;;;5.03;2.85;;;;;;;18.08;53.01;101624.53;4958611;28;124344;-60
2022/08/21 01:07:53;;;;;;;4.45;3.22;;;;;;;18.06;52.99;101623.75;4959583;28;120030;-60
2022/08/21 01:10:21;;;;;;;5.82;3.35;;;;;;;18.03;53.10;101625.78;4958270;28;120220;-61
2022/08/21 01:12:52;;;;;;;5.35;2.90;;;;;;;18.00;53.06;101617.91;4955798;28;124004;-61
2022/08/21 01:15:22;;;;;;;4.13;3.05;;;;;;;17.98;53.15;101618.00;4952839;28;123711;-60
2022/08/21 01:17:50;;;;;;;4.60;2.92;;;;;;;17.95;53.07;101626.25;4960313;28;98979;-60
2022/08/21 01:20:18;;;;;;;4.57;3.17;;;;;;;17.93;53.22;101620.09;4953357;28;119865;-60
2022/08/21 01:22:45;;;;;;;5.25;3.00;;;;;;;17.91;53.34;101627.38;4957822;28;125461;-60
2022/08/21 01:25:15;;;;;;;6.00;3.10;;;;;;;17.89;53.38;101623.94;4971677;28;123057;-60
2022/08/21 01:27:43;;;;;;;3.88;3.10;;;;;;;17.87;53.25;101625.88;4961390;28;119891;-60
2022/08/21 01:30:24;;;;;;;5.30;3.38;;;;;;;17.85;53.40;101622.44;4957285;28;118752;-61
2022/08/21 01:32:52;;;;;;;5.85;3.10;;;;;;;17.83;53.52;101621.63;4957784;28;124260;-61
2022/08/21 01:35:20;;;;;;;7.90;4.20;;;;;;;17.80;53.91;101624.50;4955221;28;124103;-62
2022/08/21 01:37:48;;;;;;;6.93;4.07;;;;;;;17.79;54.14;101612.06;4957371;28;119941;-62
2022/08/21 01:40:18;;;;;;;7.95;4.20;;;;;;;17.79;54.26;101617.44;4956536;28;118635;-62
2022/08/21 01:42:45;;;;;;;6.20;4.20;;;;;;;17.80;54.15;101624.50;4965582;28;123834;-62
2022/08/21 01:45:15;;;;;;;8.07;3.95;;;;;;;17.79;54.33;101620.13;4955305;28;124278;-62
2022/08/21 01:47:44;;;;;;;4.97;3.63;;;;;;;17.79;54.09;101617.44;4960495;28;119413;-62
2022/08/21 01:50:15;;;;;;;4.90;3.40;;;;;;;17.74;53.94;101608.81;4954775;28;118917;-62
2022/08/21 01:52:42;;;;;;;4.35;3.30;;;;;;;17.69;53.79;101617.16;4960015;28;125140;-62
2022/08/21 01:55:11;;;;;;;7.00;3.13;;;;;;;17.63;53.84;101612.16;4956286;28;124741;-62
2022/08/21 01:57:39;;;;;;;4.47;3.45;;;;;;;17.59;54.01;101621.34;4952820;28;119429;-61
2022/08/21 02:00:11;;;;;;;5.20;3.38;;;;;;;17.55;54.01;101625.19;4961005;28;119576;-62
2022/08/21 02:02:40;;;;;;;5.88;3.40;;;;;;;17.53;53.98;101619.91;4956433;28;124201;-61
2022/08/21 02:05:10;;;;;;;5.47;3.20;;;;;;;17.49;54.00;101613.88;4960873;28;123425;-61
2022/08/21 02:07:39;;;;;;;4.70;3.10;;;;;;;17.47;53.96;101617.63;4958749;28;120764;-61
2022/08/21 02:10:09;;;;;;;3.90;3.30;;;;;;;17.44;53.86;101612.44;4950298;28;120339;-61
2022/08/21 02:12:36;;;;;;;5.00;3.25;;;;;;;17.40;53.96;101610.91;4947027;28;124140;-61
2022/08/21 02:15:05;;;;;;;6.57;3.80;;;;;;;17.37;54.30;101611.13;4954661;28;123624;-61
2022/08/21 02:17:54;;;;;;;4.90;3.60;;;;;;;17.31;54.09;101607.84;4957156;28;119428;-62
2022/08/21 02:20:35;;;;;;;7.90;3.65;;;;;;;17.27;54.33;101606.31;4957720;28;120308;-62
2022/08/21 02:23:04;;;;;;;8.43;4.25;;;;;;;17.27;54.56;101600.97;4953458;28;125496;-61
2022/08/21 02:25:33;;;;;;;8.88;5.53;;;;;;;17.25;55.06;101597.53;4951209;28;124351;-62
2022/08/21 02:28:05;;;;;;;8.05;5.25;;;;;;;17.25;55.13;101600.22;4950484;28;118977;-61
2022/08/21 02:30:38;;;;;;;9.80;5.80;;;;;;;17.26;55.38;101596.56;4957084;28;119461;-61
2022/08/21 02:33:06;;;;;;;9.07;5.82;;;;;;;17.31;55.31;101607.84;4938818;28;124358;-60
2022/08/21 02:35:33;;;;;;;8.98;5.47;;;;;;;17.34;55.45;101589.88;4951904;28;124653;-60
2022/08/21 02:38:04;;;;;;;11.85;5.82;;;;;;;17.35;55.62;101588.91;4967510;28;119188;-61
2022/08/21 02:40:35;;;;;;;7.38;5.30;;;;;;;17.38;55.52;101596.75;4951318;28;117941;-60
2022/08/21 02:43:04;;;;;;;10.15;5.05;;;;;;;17.39;55.31;101598.50;4960194;28;123079;-61
2022/08/21 02:45:32;;;;;;;12.20;5.85;;;;;;;17.39;55.35;101587.78;4956173;28;123940;-60
2022/08/21 02:48:04;;;;;;;11.43;6.07;;;;;;;17.39;55.62;101587.78;4945090;28;119292;-60
2022/08/21 02:50:38;;;;;;;7.40;5.45;;;;;;;17.40;55.75;101589.50;4957566;28;119233;-60
2022/08/21 02:53:08;;;;;;;8.27;5.93;;;;;;;17.40;55.54;101584.13;4954695;28;123185;-60
2022/08/21 02:55:36;;;;;;;8.95;5.55;;;;;;;17.41;55.64;101585.88;4959827;28;123820;-60
2022/08/21 02:58:07;;;;;;;10.13;6.20;;;;;;;17.41;55.86;101585.88;4960748;28;119169;-60
2022/08/21 03:00:36;;;;;;;11.18;5.60;;;;;;;17.41;55.82;101575.16;4958016;28;120425;-60
2022/08/21 03:03:04;;;;;;;9.55;5.03;;;;;;;17.40;55.71;101589.50;4952976;28;124099;-60
2022/08/21 03:05:33;;;;;;;8.23;4.85;;;;;;;17.38;55.60;101578.00;4951270;28;124759;-60
2022/08/21 03:08:02;;;;;;;6.35;4.07;;;;;;;17.36;55.69;101577.25;4961172;28;118809;-60
2022/08/21 03:10:30;;;;;;;6.03;3.78;;;;;;;17.32;55.35;101574.75;4957576;28;119435;-61
2022/08/21 03:12:58;;;;;;;8.57;4.07;;;;;;;17.29;55.25;101566.94;4958227;28;123864;-60
2022/08/21 03:15:26;;;;;;;7.07;4.00;;;;;;;17.25;55.08;101573.44;4956922;28;125471;-60
2022/08/21 03:17:54;;;;;;;6.72;4.30;;;;;;;17.22;55.01;101565.59;4950587;28;119612;-60
2022/08/21 03:20:26;;;;;;;9.80;4.40;;;;;;;17.19;54.91;101571.13;4965921;28;119073;-60
2022/08/21 03:22:54;;;;;;;6.63;4.10;;;;;;;17.16;54.91;101571.31;4953241;28;123303;-60
2022/08/21 03:25:22;;;;;;;9.57;4.45;;;;;;;17.11;54.77;101568.91;4954375;28;123917;-60
2022/08/21 03:28:18;;;;;;;7.53;4.30;;;;;;;17.07;54.85;101572.72;4955070;28;119425;-60
2022/08/21 03:30:49;;;;;;;7.72;4.80;;;;;;;17.03;54.90;101575.69;4955356;28;118749;-60
2022/08/21 03:33:16;;;;;;;9.43;4.85;;;;;;;16.99;54.78;101574.13;4962996;28;124500;-60
2022/08/21 03:35:54;;;;;;;6.78;4.63;;;;;;;16.95;54.98;101576.13;4963718;28;124155;-59
2022/08/21 03:38:21;;;;;;;7.00;5.50;;;;;;;16.91;54.92;101572.81;4952961;28;119455;-60
2022/08/21 03:40:53;;;;;;;6.22;4.88;;;;;;;16.89;55.00;101569.34;4965061;28;119925;-61
2022/08/21 03:43:20;;;;;;;9.18;5.10;;;;;;;16.88;55.19;101567.63;4955875;28;124157;-61
2022/08/21 03:45:48;;;;;;;7.22;4.70;;;;;;;16.85;55.23;101567.81;4963092;28;124770;-60
2022/08/21 03:48:19;;;;;;;9.65;5.15;;;;;;;16.83;55.38;101579.56;4947133;28;120014;-60
2022/08/21 03:50:47;;;;;;;9.15;5.30;;;;;;;16.81;55.55;101576.09;4956672;28;119531;-60
2022/08/21 03:53:15;;;;;;;9.23;5.32;;;;;;;16.78;55.81;101570.91;4952591;28;124186;-59
2022/08/21 03:55:46;;;;;;;9.35;5.22;;;;;;;16.76;55.80;101573.66;4955974;28;122927;-60
2022/08/21 03:58:19;;;;;;;8.55;5.40;;;;;;;16.72;56.15;101572.97;4959665;28;119157;-60
2022/08/21 04:00:48;;;;;;;11.30;6.28;;;;;;;16.73;56.18;101573.88;4960873;28;118960;-60
2022/08/21 04:03:16;;;;;;;10.52;6.18;;;;;;;16.72;56.16;101577.47;4963825;28;123438;-60
2022/08/21 04:05:45;;;;;;;11.38;6.97;;;;;;;16.72;56.25;101572.13;4954759;28;123747;-60
2022/08/21 04:08:13;;;;;;;11.85;6.78;;;;;;;16.71;56.28;101570.44;4954546;28;119606;-60
2022/08/21 04:10:42;;;;;;;12.32;6.78;;;;;;;16.71;56.34;101576.63;4976201;28;118816;-61
2022/08/21 04:13:10;;;;;;;14.05;8.38;;;;;;;16.70;56.40;101574.03;4962117;28;124080;-60
2022/08/21 04:15:37;;;;;;;12.90;7.80;;;;;;;16.69;56.32;101577.69;4951367;28;123909;-60
2022/08/21 04:18:05;;;;;;;14.95;7.53;;;;;;;16.67;56.77;101577.78;4951289;28;119917;-60
2022/08/21 04:20:33;;;;;;;12.25;7.40;;;;;;;16.68;56.73;101570.59;4954882;28;119137;-60
2022/08/21 04:23:01;;;;;;;12.40;7.30;;;;;;;16.67;56.83;101568.84;4962348;28;124125;-60
2022/08/21 04:25:28;;;;;;;12.52;7.60;;;;;;;16.68;57.17;101559.91;4958135;28;123896;-60
2022/08/21 04:27:55;;;;;;;13.27;7.88;;;;;;;16.69;57.05;101566.97;4959994;28;119200;-60
2022/08/21 04:30:22;;;;;;;14.70;8.18;;;;;;;16.70;56.96;101574.03;4958721;28;118949;-60
2022/08/21 04:32:57;;;;;;;10.55;7.72;;;;;;;16.71;57.15;101573.09;4960090;28;124107;-60
2022/08/21 04:35:27;;;;;;;12.13;8.65;;;;;;;16.72;57.12;101572.13;4979056;28;123940;-60
2022/08/21 04:37:55;;;;;;;14.98;8.55;;;;;;;16.72;57.33;101577.47;4956629;28;120393;-60
2022/08/21 04:40:25;;;;;;;14.32;8.77;;;;;;;16.73;57.37;101579.22;4952507;28;120194;-60
2022/08/21 04:43:05;;;;;;;15.35;8.60;;;;;;;16.72;57.29;101572.13;4956435;28;124021;-60
2022/08/21 04:45:36;;;;;;;15.85;9.48;;;;;;;16.74;57.47;101570.22;4963538;28;122823;-59
2022/08/21 04:48:08;;;;;;;11.73;8.20;;;;;;;16.75;57.59;101566.63;4954393;28;119609;-60
2022/08/21 04:50:56;;;;;;;13.10;8.48;;;;;;;16.75;57.39;101582.66;4950910;28;119443;-60
2022/08/21 04:53:31;;;;;;;11.10;8.80;;;;;;;16.76;57.60;101568.31;4957194;28;123098;-60
2022/08/21 04:56:04;;;;;;;13.50;8.43;;;;;;;16.77;57.73;101586.09;4974073;28;124035;-60
2022/08/21 04:58:33;;;;;;;11.88;8.55;;;;;;;16.78;57.36;101586.97;4959741;28;119442;-60
2022/08/21 05:01:01;;;;;;;10.75;8.07;;;;;;;16.79;57.70;101594.91;4952162;28;118962;-60
2022/08/21 05:03:31;;;;;;;13.43;8.20;;;;;;;16.80;57.56;101598.44;4957416;28;124558;-60
2022/08/21 05:05:59;;;;;;;14.43;8.10;;;;;;;16.82;57.68;101605.47;4963059;28;124019;-60
2022/08/21 05:08:27;;;;;;;11.88;8.60;;;;;;;16.83;57.72;101599.16;4954265;28;119213;-60
2022/08/21 05:10:54;;;;;;;12.13;8.52;;;;;;;16.84;57.73;101595.53;4964402;28;117851;-60
2022/08/21 05:13:27;;;;;;;15.55;8.82;;;;;;;16.85;57.69;101599.91;4959326;28;124302;-61
2022/08/21 05:15:55;;;;;;;13.55;8.90;;;;;;;16.86;57.77;101601.66;4971432;28;122646;-60
2022/08/21 05:18:23;;;;;;;12.57;8.98;;;;;;;16.87;57.85;101597.16;4951616;28;119614;-60
2022/08/21 05:20:50;;;;;;;14.73;9.25;;;;;;;16.88;58.04;101599.75;4964251;28;117972;-60
2022/08/21 05:23:18;;;;;;;11.57;8.82;;;;;;;16.89;58.17;101596.09;4963793;28;122444;-60
2022/08/21 05:25:45;;;;;;;14.65;8.82;;;;;;;16.93;58.39;101603.00;4950625;28;123088;-60
2022/08/21 05:28:12;;;;;;;11.35;8.43;;;;;;;16.97;58.50;101602.81;4954019;28;120681;-60
2022/08/21 05:30:40;;;;;;;12.70;9.00;;;;;;;17.00;58.58;101598.13;4967182;28;120373;-60
2022/08/21 05:33:07;;;;;;;14.75;8.93;;;;;;;17.03;58.54;101602.47;4957544;28;125370;-60
2022/08/21 05:35:35;;;;;;;14.07;8.80;;;;;;;17.04;58.49;101597.00;4958755;28;123924;-60
2022/08/21 05:38:04;;;;;;;16.40;9.10;;;;;;;17.08;58.67;101605.69;4955790;28;119870;-60
2022/08/21 05:40:40;;;;;;;13.88;9.57;;;;;;;17.12;58.74;101617.94;4960263;28;118084;-60
2022/08/21 05:43:08;;;;;;;11.82;9.00;;;;;;;17.15;58.82;101607.06;4961559;28;124071;-60
2022/08/21 05:45:35;;;;;;;13.70;8.40;;;;;;;17.18;58.92;101604.22;4968691;28;124797;-60
2022/08/21 05:48:11;;;;;;;17.30;9.13;;;;;;;17.21;58.89;101622.75;4948664;28;118410;-60
2022/08/21 05:50:39;;;;;;;13.40;8.80;;;;;;;17.25;58.88;101618.94;4954762;28;119093;-60
2022/08/21 05:53:09;;;;;;;14.60;9.10;;;;;;;17.31;58.98;101615.88;4960113;28;122889;-60
2022/08/21 05:55:37;;;;;;;14.82;8.90;;;;;;;17.35;59.00;101619.25;4955451;28;124925;-60
2022/08/21 05:58:12;;;;;;;17.40;8.63;;;;;;;17.39;59.16;101625.28;4961431;28;119068;-60
2022/08/21 06:00:41;;;;;;;15.57;8.63;;;;;;;17.44;59.23;101623.16;4951736;28;118945;-60
2022/08/21 06:03:35;;;;;;;13.88;9.02;;;;;;;17.49;59.22;101621.06;4968405;28;124165;-61
2022/08/21 06:06:03;;;;;;;13.57;8.93;;;;;;;17.56;59.20;101611.69;4958005;28;124374;-62
2022/08/21 06:08:31;;;;;;;12.25;8.68;;;;;;;17.61;59.25;101609.59;4952531;28;118839;-61
2022/08/21 06:10:59;;;;;;;13.55;8.30;;;;;;;17.66;59.24;101618.19;4958954;28;118843;-60
2022/08/21 06:13:30;;;;;;;14.90;8.82;;;;;;;17.73;59.23;101612.47;4953208;28;123838;-60
2022/08/21 06:16:17;;;;;;;16.50;8.48;;;;;;;17.78;59.22;101615.69;4959733;28;124157;-61
2022/08/21 06:18:45;;;;;;;11.35;8.25;;;;;;;17.86;59.34;101613.44;4960365;28;121089;-60
2022/08/21 06:21:13;;;;;;;10.65;8.25;;;;;;;17.91;59.29;101614.00;4961141;28;119595;-60
2022/08/21 06:23:41;;;;;;;14.38;8.30;;;;;;;17.99;59.37;101619.75;4943669;28;125711;-61
2022/08/21 06:26:11;;;;;;;12.55;7.90;;;;;;;18.06;59.57;101613.03;4964279;28;124018;-60
2022/08/21 06:28:40;;;;;;;11.02;7.68;;;;;;;18.16;59.56;101609.72;4964970;28;118234;-61
2022/08/21 06:31:13;;;;;;;12.45;7.18;;;;;;;18.26;59.77;101613.56;4967287;28;119772;-62
2022/08/21 06:33:41;;;;;;;10.25;7.00;;;;;;;18.37;59.68;101619.06;4962398;28;123921;-61
2022/08/21 06:36:09;;;;;;;14.02;6.18;;;;;;;18.48;59.62;101621.91;4959702;28;124093;-62
2022/08/21 06:38:37;;;;;;;9.73;6.20;;;;;;;18.58;59.55;101616.78;4953903;28;119656;-61
2022/08/21 06:41:06;;;;;;;9.57;5.72;;;;;;;18.70;59.51;101620.47;4947204;28;119482;-62
2022/08/21 06:43:33;;;;;;;10.43;5.50;;;;;;;18.82;59.41;101618.84;4949505;28;124165;-60
2022/08/21 06:46:07;;;;;;;10.52;6.03;;;;;;;18.97;59.37;101616.94;4950692;28;123850;-61
2022/08/21 06:48:34;;;;;;;9.88;5.90;;;;;;;19.10;59.46;101617.81;4943696;28;119385;-62
2022/08/21 06:51:08;;;;;;;10.18;5.85;;;;;;;19.23;59.29;101613.31;4947998;28;119520;-62
2022/08/21 06:53:35;;;;;;;10.90;5.65;;;;;;;19.41;59.28;101615.69;4944701;28;124539;-62
2022/08/21 06:56:03;;;;;;;10.55;5.53;;;;;;;19.57;59.22;101616.34;4948400;28;124230;-62
2022/08/21 06:58:30;;;;;;;13.07;5.47;;;;;;;19.74;58.86;101611.59;4955825;28;119320;-62
2022/08/21 07:00:58;;;;;;;11.95;5.60;;;;;;;19.89;58.83;101620.38;4952417;28;119024;-62
2022/08/21 07:03:31;;;;;;;10.77;5.50;;;;;;;20.06;58.79;101627.22;4945389;28;123196;-62
2022/08/21 07:05:58;;;;;;;10.52;5.75;;;;;;;20.26;58.70;101618.56;4949214;28;124553;-62
2022/08/21 07:08:27;;;;;;;10.85;5.10;;;;;;;20.43;58.53;101620.84;4965308;28;119604;-62
2022/08/21 07:10:57;;;;;;;8.70;4.63;;;;;;;20.63;58.25;101621.25;4950412;28;120617;-62
2022/08/21 07:13:25;;;;;;;8.15;5.10;;;;;;;20.79;58.07;101611.06;4966243;28;124783;-63
2022/08/21 07:15:52;;;;;;;12.13;5.65;;;;;;;20.99;57.81;101616.72;4961656;28;123097;-62
2022/08/21 07:18:19;;;;;;;10.90;5.22;;;;;;;21.16;57.62;101612.72;4962250;28;119183;-62
2022/08/21 07:20:47;;;;;;;9.32;4.57;;;;;;;21.33;57.43;101609.56;4949830;28;118831;-62
2022/08/21 07:23:37;;;;;;;13.30;5.30;;;;;;;21.49;57.49;101609.28;4966143;28;122829;-62
2022/08/21 07:26:05;;;;;;;11.48;5.20;;;;;;;21.67;56.96;101616.88;4957383;28;124231;-62
2022/08/21 07:28:32;;;;;;;10.90;5.32;;;;;;;21.85;56.61;101610.00;4968177;28;118618;-62
2022/08/21 07:31:01;;;;;;;13.85;5.10;;;;;;;22.02;56.42;101610.44;4968846;28;117879;-62
2022/08/21 07:33:31;;;;;;;10.95;4.80;;;;;;;22.15;56.00;101614.75;4963952;28;124307;-62
2022/08/21 07:35:58;;;;;;;9.35;4.78;;;;;;;22.30;55.98;101599.16;4942785;28;122801;-62
2022/08/21 07:38:26;;;;;;;11.48;4.68;;;;;;;22.42;55.79;101599.97;4962702;28;119334;-62
2022/08/21 07:40:56;;;;;;;11.88;5.28;;;;;;;22.56;55.37;101601.50;4961275;28;119541;-62
2022/08/21 07:43:23;;;;;;;10.55;4.70;;;;;;;22.69;55.38;101610.28;4947424;28;124504;-62
2022/08/21 07:45:51;;;;;;;11.88;5.15;;;;;;;22.83;54.99;101603.75;4955930;28;124476;-61
2022/08/21 07:48:18;;;;;;;11.38;4.90;;;;;;;22.95;54.72;101604.53;4947166;28;119814;-61
2022/08/21 07:50:45;;;;;;;10.27;5.05;;;;;;;23.05;54.62;101605.47;4960656;28;119364;-61
2022/08/21 07:53:12;;;;;;;10.23;4.75;;;;;;;23.16;54.17;101607.25;4956914;28;122930;-61
2022/08/21 07:55:39;;;;;;;14.38;4.88;;;;;;;23.26;54.25;101607.31;4965537;28;124615;-61
2022/08/21 07:58:07;;;;;;;10.95;5.07;;;;;;;23.33;53.94;101597.69;4946591;28;120291;-61
2022/08/21 08:00:34;;;;;;;8.32;4.45;;;;;;;23.45;53.99;101606.56;4949255;28;120484;-61
2022/08/21 08:03:02;;;;;;;9.48;4.50;;;;;;;23.55;53.62;101601.22;4965607;28;124095;-62
2022/08/21 08:05:30;;;;;;;11.45;4.55;;;;;;;23.62;53.75;101615.88;4966870;28;123797;-61
2022/08/21 08:07:58;;;;;;;9.50;4.13;;;;;;;23.70;53.97;101610.69;4954151;28;119315;-61
2022/08/21 08:10:27;;;;;;;10.40;4.60;;;;;;;23.81;53.49;101607.91;4966456;28;118665;-61
2022/08/21 08:12:54;;;;;;;9.77;4.35;;;;;;;23.93;53.60;101605.09;4964833;28;124140;-61
2022/08/21 08:15:25;;;;;;;11.57;4.57;;;;;;;24.02;53.46;101599.72;4949008;28;124113;-61
2022/08/21 08:17:54;;;;;;;11.73;4.90;;;;;;;24.09;52.85;101610.81;4948856;28;119285;-61
2022/08/21 08:20:22;;;;;;;11.15;4.78;;;;;;;24.15;52.88;101604.88;4968110;28;118808;-61
2022/08/21 08:22:50;;;;;;;13.27;4.60;;;;;;;24.24;52.86;101604.03;4952601;28;124105;-61
2022/08/21 08:25:18;;;;;;;10.82;4.53;;;;;;;24.35;52.80;101599.47;4953033;28;124083;-61
2022/08/21 08:27:46;;;;;;;7.65;4.35;;;;;;;24.46;52.87;101602.06;4967301;28;118390;-61
2022/08/21 08:30:16;;;;;;;10.27;4.35;;;;;;;24.60;52.37;101606.22;4950867;28;119343;-62
2022/08/21 08:32:44;;;;;;;12.15;4.07;;;;;;;24.73;52.01;101603.22;4956464;28;124107;-62
2022/08/21 08:35:12;;;;;;;9.35;4.50;;;;;;;24.81;51.59;101600.69;4966720;28;124494;-61
2022/08/21 08:37:44;;;;;;;10.32;4.03;;;;;;;24.88;51.71;101596.38;4957554;28;119965;-61
2022/08/21 08:40:43;;;;;;;8.18;3.53;;;;;;;24.94;51.59;101589.50;4948095;28;119257;-61
2022/08/21 08:43:14;;;;;;;13.05;4.50;;;;;;;25.04;51.53;101591.22;4961457;28;123948;-62
2022/08/21 08:45:46;;;;;;;14.10;4.20;;;;;;;25.11;51.13;101574.34;4957469;28;124687;-61
2022/08/21 08:48:26;;;;;;;9.30;4.07;;;;;;;25.12;50.82;101576.09;4952895;28;120640;-61
2022/08/21 08:50:56;;;;;;;9.05;3.88;;;;;;;25.14;50.87;101574.06;4951831;28;119945;-61
2022/08/21 08:53:43;;;;;;;8.50;3.47;;;;;;;25.22;50.86;101571.47;4954705;28;123901;-62
2022/08/21 08:56:10;;;;;;;9.13;3.30;;;;;;;25.29;50.96;101569.91;4960661;28;123988;-61
2022/08/21 08:58:40;;;;;;;9.18;3.53;;;;;;;25.37;50.60;101570.06;4956552;28;119373;-62
2022/08/21 09:01:17;;;;;;;10.32;3.83;;;;;;;25.43;50.26;101564.03;4965337;28;118954;-62
2022/08/21 09:03:49;;;;;;;10.07;3.05;;;;;;;25.47;50.16;101569.13;4958391;28;123197;-62
2022/08/21 09:06:36;;;;;;;6.88;3.15;;;;;;;25.52;49.92;101566.84;4952338;28;123970;-61
2022/08/21 09:09:36;;;;;;;8.82;3.10;;;;;;;25.59;49.69;101563.38;4960363;28;119477;-62
2022/08/21 09:12:28;;;;;;;6.47;2.60;;;;;;;25.64;49.72;101565.66;4926046;28;118711;-62
2022/08/21 09:15:27;;;;;;;6.75;2.28;;;;;;;25.63;49.27;101558.50;4961032;28;123622;-62
2022/08/21 09:18:13;;;;;;;8.07;2.45;;;;;;;25.60;49.25;101558.81;4950151;28;123894;-62
2022/08/21 09:20:55;;;;;;;7.60;2.65;;;;;;;25.61;49.07;101566.78;4950268;28;119254;-62
2022/08/21 09:23:29;;;;;;;7.85;2.78;;;;;;;25.59;49.05;101567.94;4945728;28;119318;-62
2022/08/21 09:26:07;;;;;;;8.00;2.30;;;;;;;25.60;48.99;101559.66;4951820;28;124000;-62
2022/08/21 09:28:35;;;;;;;6.68;2.17;;;;;;;25.67;48.75;101557.19;4961621;28;123937;-62
2022/08/21 09:31:07;;;;;;;5.88;2.33;;;;;;;25.78;49.07;101557.00;4962861;28;119112;-62
2022/08/21 09:33:34;;;;;;;6.03;1.83;;;;;;;25.93;48.57;101564.66;4962105;28;119242;-62
2022/08/21 09:36:02;;;;;;;7.90;2.17;;;;;;;26.05;48.46;101558.03;4955169;28;124426;-62
2022/08/21 09:38:37;;;;;;;7.93;2.00;;;;;;;26.15;47.73;101558.81;4945585;28;124691;-63
2022/08/21 09:41:09;;;;;;;8.57;1.80;;;;;;;26.25;47.12;101557.88;4951049;28;120100;-62
2022/08/21 09:43:37;;;;;;;5.38;1.40;;;;;;;26.30;46.93;101561.00;4955773;28;119797;-62
2022/08/21 09:46:09;;;;;;;5.53;1.75;;;;;;;26.36;46.89;101565.78;4954970;28;123044;-62
2022/08/21 09:48:52;;;;;;;5.88;1.58;;;;;;;26.40;46.73;101557.16;4952842;28;124033;-62
2022/08/21 09:51:22;;;;;;;7.75;1.65;;;;;;;26.52;46.37;101565.97;4962935;28;119757;-63
2022/08/21 09:54:04;;;;;;;6.18;1.80;;;;;;;26.61;46.31;101565.03;4960188;28;118859;-62
2022/08/21 09:59:30;;;;;;;4.78;1.75;;;;;;;26.76;46.42;101553.59;4953568;28;123479;-64
2022/08/21 10:02:24;;;;;;;3.55;1.60;;;;;;;26.85;46.14;101560.81;4963946;28;119233;-64
2022/08/21 10:04:56;;;;;;;6.43;1.80;;;;;;;26.94;45.59;101570.72;4965667;28;118482;-64
2022/08/21 10:07:26;;;;;;;6.82;1.95;;;;;;;26.98;45.24;101566.69;4953577;28;123863;-63
2022/08/21 10:10:12;;;;;;;7.10;2.00;;;;;;;27.00;45.63;101553.78;4974205;28;123819;-64
2022/08/21 10:12:44;;;;;;;6.40;1.92;;;;;;;27.04;45.44;101553.47;4964568;28;119164;-64
2022/08/21 10:15:34;;;;;;;7.95;1.63;;;;;;;27.06;45.49;101559.59;4948233;28;119068;-64
2022/08/21 10:18:20;;;;;;;6.75;1.50;;;;;;;27.10;45.02;101547.38;4961009;28;123896;-64
2022/08/21 10:21:21;;;;;;;5.30;1.50;;;;;;;27.09;44.13;101551.97;4954516;28;123758;-64
2022/08/21 10:23:51;;;;;;;5.82;1.88;;;;;;;27.11;44.71;101554.53;4957501;28;119745;-64
2022/08/21 10:26:27;;;;;;;7.43;1.80;;;;;;;27.16;44.87;101541.28;4963396;28;119266;-64
2022/08/21 10:29:31;;;;;;;7.50;1.63;;;;;;;27.27;44.68;101543.75;4950086;28;123780;-64
2022/08/21 10:32:38;;;;;;;4.88;1.30;;;;;;;27.35;43.82;101546.56;4954299;28;124230;-64
2022/08/21 10:35:15;;;;;;;6.88;1.60;;;;;;;27.33;43.72;101547.69;4950451;28;121382;-64
2022/08/21 10:37:48;;;;;;;3.67;1.35;;;;;;;27.31;43.59;101550.63;4945939;28;119867;-64
2022/08/21 10:40:26;;;;;;;6.03;2.08;;;;;;;27.34;43.15;101561.16;4953435;28;125504;-64
2022/08/21 10:43:19;;;;;;;5.80;1.42;;;;;;;27.42;44.07;101556.78;4952067;28;123820;-64
2022/08/21 10:46:06;;;;;;;5.95;1.50;;;;;;;27.53;44.42;101553.75;4955295;28;118369;-64
2022/08/21 10:48:50;;;;;;;3.75;1.50;;;;;;;27.67;43.24;101545.00;4950292;28;118827;-64
2022/08/21 10:51:52;;;;;;;2.70;1.23;;;;;;;27.75;42.96;101553.19;4951565;28;124170;-64
2022/08/21 10:54:31;;;;;;;4.30;1.50;;;;;;;27.86;42.82;101559.31;4953543;28;124072;-64
2022/08/21 10:57:07;;;;;;;3.45;1.30;;;;;;;27.93;42.38;101554.97;4960899;28;119421;-64
2022/08/21 10:59:46;;;;;;;3.25;1.25;;;;;;;27.94;41.76;101540.34;4945646;28;118972;-64
2022/08/21 11:02:27;;;;;;;4.97;1.45;;;;;;;27.94;41.83;101551.22;4956511;28;124103;-64
2022/08/21 11:05:13;;;;;;;5.70;1.40;;;;;;;27.95;41.71;101547.47;4952474;28;124688;-64
2022/08/21 11:07:54;;;;;;;3.72;1.23;;;;;;;27.95;41.59;101555.63;4964605;28;118935;-65
2022/08/21 11:10:31;;;;;;;5.10;1.70;;;;;;;27.95;41.51;101552.91;4966028;28;118978;-64
2022/08/21 11:13:06;;;;;;;4.00;1.30;;;;;;;27.95;41.22;101547.47;4949828;28;123990;-64
2022/08/21 11:15:44;;;;;;;3.13;1.10;;;;;;;27.95;41.19;101552.91;4950890;28;123987;-64
2022/08/21 11:18:22;;;;;;;3.70;1.55;;;;;;;27.99;41.20;101553.44;4949831;28;120406;-64
2022/08/21 11:21:14;;;;;;;6.00;1.60;;;;;;;28.06;41.08;101549.88;4941748;28;118011;-64
2022/08/21 11:23:57;;;;;;;4.95;1.60;;;;;;;28.17;41.14;101540.53;4959394;28;124337;-63
2022/08/21 11:27:09;;;;;;;4.45;1.40;;;;;;;28.25;40.91;101547.88;4949427;28;124039;-63
2022/08/21 11:29:39;;;;;;;4.15;1.30;;;;;;;28.31;40.70;101536.28;4945372;28;120329;-63
2022/08/21 11:32:15;;;;;;;4.95;1.25;;;;;;;28.38;40.68;101542.78;4959222;28;120310;-63
2022/08/21 11:35:07;;;;;;;2.92;1.30;;;;;;;28.45;40.21;101537.50;4962748;28;123045;-63
2022/08/21 11:37:58;;;;;;;4.47;1.40;;;;;;;28.44;40.14;101547.53;4955110;28;123868;-63
2022/08/21 11:40:44;;;;;;;6.07;1.40;;;;;;;28.45;39.95;101532.06;4959238;28;120067;-63